AFL008 UWLL-UWSG
Flight info
| Callsign | AFL008 |
|---|---|
| Flight time | 0h 48m |
| Altitude | 24000 |
| Route | NEPNI DCT TIRET DCT UGMET DCT OGRER |
| Aircraft | T154/M-SDWY/S |
Departure
| Time | 2026-04-26 10:56 |
|---|---|
| Airport | Ulyanovsk Baratayevka Airport (UWLL) |
Arrival
| Time | 2026-04-26 11:44 |
|---|---|
| Airport | Gagarin International Airport (UWSG) |
| Time | Latitude | Longitude | Altitude | Speed | Heading |
|---|---|---|---|---|---|
| 2026-04-26 10:43 | 54.28479 | 48.23551 | 461 ft | 0 kts | 32° |
| 2026-04-26 10:53 | 54.28479 | 48.23552 | 461 ft | 0 kts | 32° |
| 2026-04-26 10:53 | 54.28490 | 48.23561 | 461 ft | 5 kts | 18° |
| 2026-04-26 10:54 | 54.28483 | 48.23505 | 461 ft | 3 kts | 209° |
| 2026-04-26 10:54 | 54.28452 | 48.23504 | 461 ft | 5 kts | 160° |
| 2026-04-26 10:54 | 54.28416 | 48.23553 | 461 ft | 7 kts | 127° |
| 2026-04-26 10:54 | 54.28376 | 48.23657 | 461 ft | 14 kts | 124° |
| 2026-04-26 10:55 | 54.28323 | 48.23798 | 461 ft | 13 kts | 123° |
| 2026-04-26 10:55 | 54.28250 | 48.23858 | 461 ft | 11 kts | 191° |
| 2026-04-26 10:55 | 54.28184 | 48.23814 | 461 ft | 12 kts | 207° |
| 2026-04-26 10:55 | 54.27862 | 48.23477 | 462 ft | 96 kts | 210° |
| 2026-04-26 10:56 | 54.27112 | 48.22693 | 785 ft | 139 kts | 209° |
| 2026-04-26 10:56 | 54.26311 | 48.21884 | 1615 ft | 142 kts | 210° |
| 2026-04-26 10:56 | 54.25415 | 48.21014 | 2360 ft | 158 kts | 207° |
| 2026-04-26 10:56 | 54.24334 | 48.20514 | 3253 ft | 168 kts | 192° |
| 2026-04-26 10:57 | 54.23174 | 48.20209 | 4110 ft | 179 kts | 193° |
| 2026-04-26 10:57 | 54.21886 | 48.19768 | 4816 ft | 204 kts | 197° |
| 2026-04-26 10:57 | 54.20459 | 48.19127 | 5717 ft | 222 kts | 199° |
| 2026-04-26 10:57 | 54.18957 | 48.18353 | 6724 ft | 234 kts | 200° |
| 2026-04-26 10:58 | 54.17389 | 48.17495 | 7795 ft | 244 kts | 200° |
| 2026-04-26 10:58 | 54.15775 | 48.16584 | 8900 ft | 250 kts | 201° |
| 2026-04-26 10:58 | 54.14135 | 48.15638 | 10013 ft | 254 kts | 201° |
| 2026-04-26 10:58 | 54.12477 | 48.14659 | 11114 ft | 256 kts | 201° |
| 2026-04-26 10:59 | 54.10815 | 48.13651 | 12193 ft | 257 kts | 201° |
| 2026-04-26 10:59 | 54.09147 | 48.12622 | 13250 ft | 257 kts | 201° |
| 2026-04-26 10:59 | 54.07499 | 48.11606 | 14268 ft | 256 kts | 201° |
| 2026-04-26 10:59 | 54.05840 | 48.10591 | 15256 ft | 254 kts | 201° |
| 2026-04-26 11:00 | 54.04198 | 48.09595 | 16193 ft | 252 kts | 201° |
| 2026-04-26 11:00 | 54.02576 | 48.08618 | 17077 ft | 250 kts | 201° |
| 2026-04-26 11:00 | 54.00952 | 48.07646 | 17917 ft | 249 kts | 201° |
| 2026-04-26 11:00 | 53.99317 | 48.06672 | 18720 ft | 247 kts | 201° |
| 2026-04-26 11:01 | 53.97728 | 48.05727 | 19459 ft | 245 kts | 201° |
| 2026-04-26 11:01 | 53.96114 | 48.04770 | 20166 ft | 244 kts | 201° |
| 2026-04-26 11:01 | 53.94530 | 48.03838 | 20824 ft | 243 kts | 201° |
| 2026-04-26 11:01 | 53.92931 | 48.02897 | 21437 ft | 242 kts | 200° |
| 2026-04-26 11:02 | 53.91359 | 48.01984 | 21954 ft | 247 kts | 200° |
| 2026-04-26 11:02 | 53.89642 | 48.00981 | 21959 ft | 274 kts | 201° |
| 2026-04-26 11:02 | 53.87803 | 47.99891 | 22309 ft | 287 kts | 201° |
| 2026-04-26 11:02 | 53.85888 | 47.98755 | 22848 ft | 293 kts | 201° |
| 2026-04-26 11:03 | 53.84028 | 47.97654 | 23337 ft | 284 kts | 201° |
| 2026-04-26 11:03 | 53.82151 | 47.96546 | 23786 ft | 287 kts | 201° |
| 2026-04-26 11:03 | 53.80226 | 47.95408 | 23856 ft | 305 kts | 201° |
| 2026-04-26 11:03 | 53.78141 | 47.94168 | 23837 ft | 325 kts | 201° |
| 2026-04-26 11:04 | 53.75946 | 47.92860 | 23839 ft | 345 kts | 201° |
| 2026-04-26 11:04 | 53.73624 | 47.91472 | 23837 ft | 364 kts | 201° |
| 2026-04-26 11:04 | 53.71164 | 47.89996 | 23836 ft | 383 kts | 201° |
| 2026-04-26 11:04 | 53.68627 | 47.88469 | 23835 ft | 400 kts | 201° |
| 2026-04-26 11:05 | 53.65963 | 47.86864 | 23834 ft | 416 kts | 201° |
| 2026-04-26 11:05 | 53.63179 | 47.85183 | 23836 ft | 431 kts | 201° |
| 2026-04-26 11:05 | 53.60307 | 47.83441 | 23833 ft | 443 kts | 201° |
| 2026-04-26 11:05 | 53.57442 | 47.81704 | 23824 ft | 432 kts | 201° |
| 2026-04-26 11:06 | 53.54655 | 47.80016 | 23814 ft | 415 kts | 201° |
| 2026-04-26 11:06 | 53.51956 | 47.78389 | 23832 ft | 422 kts | 201° |
| 2026-04-26 11:06 | 53.49177 | 47.76638 | 23855 ft | 426 kts | 204° |
| 2026-04-26 11:06 | 53.46474 | 47.74638 | 23833 ft | 421 kts | 206° |
| 2026-04-26 11:07 | 53.43858 | 47.72539 | 23828 ft | 422 kts | 207° |
| 2026-04-26 11:07 | 53.41236 | 47.70370 | 23828 ft | 422 kts | 208° |
| 2026-04-26 11:07 | 53.38599 | 47.68171 | 23826 ft | 422 kts | 208° |
| 2026-04-26 11:07 | 53.35983 | 47.65991 | 23826 ft | 422 kts | 208° |
| 2026-04-26 11:08 | 53.33367 | 47.63814 | 23825 ft | 422 kts | 208° |
| 2026-04-26 11:08 | 53.30828 | 47.61377 | 23889 ft | 420 kts | 218° |
| 2026-04-26 11:08 | 53.28549 | 47.58221 | 23837 ft | 423 kts | 222° |
| 2026-04-26 11:08 | 53.26277 | 47.55228 | 23847 ft | 418 kts | 217° |
| 2026-04-26 11:09 | 53.23833 | 47.52477 | 23845 ft | 422 kts | 217° |
| 2026-04-26 11:09 | 53.21583 | 47.49425 | 23853 ft | 421 kts | 222° |
| 2026-04-26 11:09 | 53.19309 | 47.46378 | 23850 ft | 419 kts | 218° |
| 2026-04-26 11:09 | 53.16869 | 47.43649 | 23854 ft | 422 kts | 213° |
| 2026-04-26 11:10 | 53.14330 | 47.41151 | 23835 ft | 421 kts | 213° |
| 2026-04-26 11:10 | 53.11827 | 47.38661 | 23822 ft | 421 kts | 212° |
| 2026-04-26 11:10 | 53.09244 | 47.36243 | 23845 ft | 432 kts | 210° |
| 2026-04-26 11:10 | 53.06566 | 47.33911 | 23832 ft | 443 kts | 208° |
| 2026-04-26 11:11 | 53.03848 | 47.31656 | 23825 ft | 427 kts | 207° |
| 2026-04-26 11:11 | 53.01191 | 47.29528 | 23826 ft | 426 kts | 207° |
| 2026-04-26 11:11 | 52.98513 | 47.27420 | 23835 ft | 426 kts | 208° |
| 2026-04-26 11:11 | 52.95932 | 47.24984 | 23856 ft | 421 kts | 213° |
| 2026-04-26 11:12 | 52.93413 | 47.22530 | 23869 ft | 421 kts | 212° |
| 2026-04-26 11:12 | 52.90854 | 47.20238 | 23894 ft | 423 kts | 210° |
| 2026-04-26 11:12 | 52.88365 | 47.18178 | 23876 ft | 422 kts | 208° |
| 2026-04-26 11:12 | 52.86107 | 47.16401 | 23906 ft | 423 kts | 207° |
| 2026-04-26 11:13 | 52.83326 | 47.14263 | 23911 ft | 425 kts | 207° |
| 2026-04-26 11:13 | 52.80620 | 47.12205 | 23912 ft | 423 kts | 207° |
| 2026-04-26 11:13 | 52.77948 | 47.10181 | 23915 ft | 424 kts | 207° |
| 2026-04-26 11:13 | 52.75286 | 47.08166 | 23916 ft | 424 kts | 207° |
| 2026-04-26 11:14 | 52.72620 | 47.06148 | 23915 ft | 423 kts | 207° |
| 2026-04-26 11:14 | 52.69940 | 47.04117 | 23914 ft | 424 kts | 207° |
| 2026-04-26 11:14 | 52.67268 | 47.02096 | 23913 ft | 425 kts | 207° |
| 2026-04-26 11:14 | 52.64566 | 47.00055 | 23913 ft | 426 kts | 207° |
| 2026-04-26 11:15 | 52.61876 | 46.98033 | 23914 ft | 427 kts | 207° |
| 2026-04-26 11:15 | 52.59194 | 46.96027 | 23913 ft | 428 kts | 207° |
| 2026-04-26 11:15 | 52.56489 | 46.94013 | 23914 ft | 429 kts | 207° |
| 2026-04-26 11:15 | 52.53749 | 46.91979 | 23914 ft | 430 kts | 207° |
| 2026-04-26 11:16 | 52.51039 | 46.89967 | 23914 ft | 431 kts | 207° |
| 2026-04-26 11:16 | 52.48294 | 46.87929 | 23912 ft | 433 kts | 207° |
| 2026-04-26 11:16 | 52.45535 | 46.85881 | 23914 ft | 434 kts | 207° |
| 2026-04-26 11:16 | 52.42814 | 46.83859 | 23914 ft | 435 kts | 207° |
| 2026-04-26 11:17 | 52.40017 | 46.81779 | 23913 ft | 436 kts | 207° |
| 2026-04-26 11:17 | 52.37281 | 46.79741 | 23905 ft | 424 kts | 207° |
| 2026-04-26 11:17 | 52.34675 | 46.77809 | 23902 ft | 404 kts | 207° |
| 2026-04-26 11:17 | 52.32219 | 46.76004 | 23893 ft | 371 kts | 207° |
| 2026-04-26 11:18 | 52.29938 | 46.74347 | 23915 ft | 356 kts | 207° |
| 2026-04-26 11:18 | 52.27653 | 46.72687 | 23922 ft | 365 kts | 207° |
| 2026-04-26 11:18 | 52.25343 | 46.71008 | 23876 ft | 364 kts | 207° |
| 2026-04-26 11:18 | 52.23032 | 46.69332 | 23133 ft | 364 kts | 207° |
| 2026-04-26 11:19 | 52.20752 | 46.67677 | 22309 ft | 360 kts | 207° |
| 2026-04-26 11:19 | 52.18483 | 46.66029 | 21492 ft | 355 kts | 207° |
| 2026-04-26 11:19 | 52.16258 | 46.64412 | 20691 ft | 350 kts | 207° |
| 2026-04-26 11:19 | 52.14072 | 46.62823 | 19900 ft | 346 kts | 207° |
| 2026-04-26 11:20 | 52.11906 | 46.61249 | 19653 ft | 330 kts | 207° |
| 2026-04-26 11:20 | 52.10502 | 46.60233 | 19754 ft | 334 kts | 207° |
| 2026-04-26 11:20 | 52.07600 | 46.58124 | 19719 ft | 342 kts | 207° |
| 2026-04-26 11:20 | 52.05467 | 46.56581 | 19716 ft | 335 kts | 207° |
| 2026-04-26 11:21 | 52.03314 | 46.55026 | 19727 ft | 340 kts | 207° |
| 2026-04-26 11:21 | 52.01157 | 46.53468 | 19701 ft | 341 kts | 207° |
| 2026-04-26 11:21 | 51.98985 | 46.51897 | 19091 ft | 339 kts | 207° |
| 2026-04-26 11:21 | 51.96852 | 46.50491 | 18485 ft | 331 kts | 199° |
| 2026-04-26 11:22 | 51.94590 | 46.49845 | 17952 ft | 333 kts | 186° |
| 2026-04-26 11:22 | 51.92279 | 46.50016 | 17430 ft | 335 kts | 174° |
| 2026-04-26 11:22 | 51.89987 | 46.50644 | 16678 ft | 336 kts | 171° |
| 2026-04-26 11:22 | 51.87690 | 46.51352 | 15708 ft | 338 kts | 171° |
| 2026-04-26 11:23 | 51.85400 | 46.52064 | 14745 ft | 338 kts | 171° |
| 2026-04-26 11:23 | 51.83092 | 46.52779 | 13798 ft | 336 kts | 171° |
| 2026-04-26 11:23 | 51.80845 | 46.53473 | 12890 ft | 333 kts | 171° |
| 2026-04-26 11:23 | 51.78596 | 46.54164 | 11989 ft | 329 kts | 171° |
| 2026-04-26 11:24 | 51.76375 | 46.54848 | 11103 ft | 324 kts | 171° |
| 2026-04-26 11:24 | 51.74167 | 46.55548 | 10222 ft | 320 kts | 171° |
| 2026-04-26 11:24 | 51.72039 | 46.56243 | 9374 ft | 314 kts | 171° |
| 2026-04-26 11:24 | 51.69927 | 46.56951 | 8528 ft | 308 kts | 171° |
| 2026-04-26 11:25 | 51.67842 | 46.57664 | 7691 ft | 302 kts | 171° |
| 2026-04-26 11:25 | 51.65835 | 46.58360 | 6877 ft | 296 kts | 171° |
| 2026-04-26 11:25 | 51.63869 | 46.59101 | 6077 ft | 290 kts | 169° |
| 2026-04-26 11:25 | 51.61963 | 46.59871 | 5791 ft | 263 kts | 169° |
| 2026-04-26 11:26 | 51.60225 | 46.60585 | 5916 ft | 268 kts | 169° |
| 2026-04-26 11:26 | 51.58406 | 46.61154 | 5867 ft | 260 kts | 181° |
| 2026-04-26 11:26 | 51.56610 | 46.60730 | 5729 ft | 260 kts | 202° |
| 2026-04-26 11:26 | 51.55087 | 46.59292 | 5526 ft | 253 kts | 224° |
| 2026-04-26 11:27 | 51.54046 | 46.57014 | 5326 ft | 254 kts | 250° |
| 2026-04-26 11:27 | 51.53907 | 46.54226 | 5146 ft | 256 kts | 278° |
| 2026-04-26 11:27 | 51.54408 | 46.51546 | 4831 ft | 243 kts | 289° |
| 2026-04-26 11:27 | 51.55000 | 46.49166 | 4871 ft | 217 kts | 289° |
| 2026-04-26 11:28 | 51.55590 | 46.46841 | 4776 ft | 226 kts | 289° |
| 2026-04-26 11:28 | 51.56182 | 46.44519 | 4814 ft | 228 kts | 289° |
| 2026-04-26 11:28 | 51.56784 | 46.42143 | 4805 ft | 226 kts | 289° |
| 2026-04-26 11:28 | 51.57416 | 46.39848 | 4819 ft | 224 kts | 300° |
| 2026-04-26 11:29 | 51.58396 | 46.37859 | 4833 ft | 225 kts | 309° |
| 2026-04-26 11:29 | 51.59425 | 46.36053 | 4787 ft | 214 kts | 310° |
| 2026-04-26 11:29 | 51.60447 | 46.34280 | 4816 ft | 221 kts | 309° |
| 2026-04-26 11:29 | 51.61469 | 46.32496 | 4797 ft | 216 kts | 309° |
| 2026-04-26 11:30 | 51.62506 | 46.30684 | 4807 ft | 218 kts | 309° |
| 2026-04-26 11:30 | 51.63185 | 46.29495 | 4811 ft | 219 kts | 309° |
| 2026-04-26 11:30 | 51.64564 | 46.27080 | 4803 ft | 217 kts | 309° |
| 2026-04-26 11:30 | 51.65588 | 46.25278 | 4810 ft | 218 kts | 307° |
| 2026-04-26 11:31 | 51.66566 | 46.23436 | 4805 ft | 218 kts | 306° |
| 2026-04-26 11:31 | 51.67522 | 46.21549 | 4823 ft | 215 kts | 305° |
| 2026-04-26 11:31 | 51.68427 | 46.19750 | 4822 ft | 199 kts | 305° |
| 2026-04-26 11:31 | 51.69268 | 46.18098 | 4765 ft | 179 kts | 305° |
| 2026-04-26 11:32 | 51.70022 | 46.16640 | 4783 ft | 165 kts | 305° |
| 2026-04-26 11:32 | 51.70785 | 46.15162 | 4838 ft | 173 kts | 305° |
| 2026-04-26 11:32 | 51.71558 | 46.13663 | 4702 ft | 171 kts | 305° |
| 2026-04-26 11:32 | 51.72315 | 46.12197 | 4442 ft | 173 kts | 305° |
| 2026-04-26 11:33 | 51.73167 | 46.10827 | 4167 ft | 172 kts | 320° |
| 2026-04-26 11:33 | 51.74245 | 46.09957 | 3911 ft | 179 kts | 341° |
| 2026-04-26 11:33 | 51.75491 | 46.09730 | 3682 ft | 182 kts | 1° |
| 2026-04-26 11:33 | 51.76713 | 46.10250 | 3497 ft | 185 kts | 28° |
| 2026-04-26 11:34 | 51.77640 | 46.11626 | 3290 ft | 181 kts | 62° |
| 2026-04-26 11:34 | 51.78038 | 46.13517 | 3061 ft | 177 kts | 89° |
| 2026-04-26 11:34 | 51.78054 | 46.15485 | 2815 ft | 175 kts | 96° |
| 2026-04-26 11:34 | 51.78043 | 46.17446 | 2550 ft | 172 kts | 91° |
| 2026-04-26 11:35 | 51.78115 | 46.19356 | 2322 ft | 170 kts | 90° |
| 2026-04-26 11:35 | 51.78194 | 46.21274 | 2172 ft | 171 kts | 90° |
| 2026-04-26 11:35 | 51.78273 | 46.23176 | 2037 ft | 170 kts | 90° |
| 2026-04-26 11:35 | 51.78354 | 46.25102 | 1903 ft | 169 kts | 90° |
| 2026-04-26 11:36 | 51.78433 | 46.26989 | 1771 ft | 169 kts | 90° |
| 2026-04-26 11:36 | 51.78514 | 46.28887 | 1640 ft | 168 kts | 90° |
| 2026-04-26 11:36 | 51.78594 | 46.30761 | 1512 ft | 167 kts | 90° |
| 2026-04-26 11:36 | 51.78674 | 46.32625 | 1384 ft | 167 kts | 90° |
| 2026-04-26 11:37 | 51.78755 | 46.34493 | 1350 ft | 163 kts | 90° |
| 2026-04-26 11:37 | 51.78835 | 46.36359 | 1399 ft | 169 kts | 90° |
| 2026-04-26 11:37 | 51.78915 | 46.38228 | 1361 ft | 165 kts | 90° |
| 2026-04-26 11:37 | 51.78995 | 46.40083 | 1374 ft | 167 kts | 90° |
| 2026-04-26 11:38 | 51.78853 | 46.41889 | 1454 ft | 155 kts | 120° |
| 2026-04-26 11:38 | 51.78125 | 46.43144 | 1420 ft | 144 kts | 155° |
| 2026-04-26 11:38 | 51.77231 | 46.43352 | 1367 ft | 131 kts | 187° |
| 2026-04-26 11:38 | 51.76281 | 46.43279 | 1425 ft | 137 kts | 180° |
| 2026-04-26 11:39 | 51.75342 | 46.43284 | 1341 ft | 133 kts | 180° |
| 2026-04-26 11:39 | 51.74403 | 46.43290 | 1390 ft | 136 kts | 180° |
| 2026-04-26 11:39 | 51.73455 | 46.43295 | 1374 ft | 135 kts | 180° |
| 2026-04-26 11:39 | 51.72506 | 46.43301 | 1370 ft | 135 kts | 180° |
| 2026-04-26 11:40 | 51.71563 | 46.43294 | 1378 ft | 135 kts | 183° |
| 2026-04-26 11:40 | 51.70724 | 46.42698 | 1414 ft | 138 kts | 222° |
| 2026-04-26 11:40 | 51.70329 | 46.41266 | 1419 ft | 146 kts | 261° |
| 2026-04-26 11:40 | 51.70511 | 46.39631 | 1410 ft | 152 kts | 287° |
| 2026-04-26 11:41 | 51.70836 | 46.38006 | 1389 ft | 148 kts | 273° |
| 2026-04-26 11:42 | 51.71020 | 46.26396 | 785 ft | 149 kts | 268° |
| 2026-04-26 11:43 | 51.71085 | 46.24735 | 688 ft | 149 kts | 268° |
| 2026-04-26 11:43 | 51.71114 | 46.23077 | 535 ft | 148 kts | 265° |
| 2026-04-26 11:43 | 51.71151 | 46.21403 | 304 ft | 148 kts | 268° |
| 2026-04-26 11:43 | 51.71189 | 46.19754 | 166 ft | 146 kts | 266° |
| 2026-04-26 11:44 | 51.71230 | 46.18330 | 91 ft | 92 kts | 270° |
| 2026-04-26 11:44 | 51.71240 | 46.17767 | 82 ft | 22 kts | 272° |
| 2026-04-26 11:44 | 51.71251 | 46.17466 | 80 ft | 20 kts | 289° |
| 2026-04-26 11:44 | 51.71359 | 46.17392 | 83 ft | 15 kts | 358° |
| 2026-04-26 11:45 | 51.71420 | 46.17397 | 84 ft | 0 kts | 2° |
| 2026-04-26 11:45 | 51.71424 | 46.17397 | 85 ft | 1 kts | 2° |
| 2026-04-26 11:45 | 51.71437 | 46.17398 | 85 ft | 3 kts | 2° |
| 2026-04-26 11:46 | 51.71481 | 46.17400 | 86 ft | 10 kts | 2° |
| 2026-04-26 11:46 | 51.71552 | 46.17406 | 88 ft | 6 kts | 2° |
| 2026-04-26 11:46 | 51.71587 | 46.17407 | 89 ft | 3 kts | 359° |
| 2026-04-26 11:46 | 51.71624 | 46.17368 | 90 ft | 10 kts | 298° |
| 2026-04-26 11:47 | 51.71631 | 46.17250 | 89 ft | 10 kts | 272° |
| 2026-04-26 11:47 | 51.71635 | 46.17141 | 89 ft | 9 kts | 273° |
| 2026-04-26 11:47 | 51.71641 | 46.17044 | 89 ft | 6 kts | 297° |
| 2026-04-26 11:47 | 51.71669 | 46.17011 | 89 ft | 3 kts | 343° |
| 2026-04-26 11:48 | 51.71682 | 46.17010 | 90 ft | 0 kts | 0° |
| 2026-04-26 11:48 | 51.71684 | 46.17010 | 90 ft | 0 kts | 1° |
| 2026-04-26 11:48 | 51.71685 | 46.17010 | 90 ft | 0 kts | 2° |